Time;durP1;ratioP1;P1;durP2;ratioP2;P2;SDS_P1;SDS_P2;PMS_P1;PMS_P2;Temp;Humidity;BMP_temperature;BMP_pressure;BME280_temperature;BME280_humidity;BME280_pressure;Samples;Min_cycle;Max_cycle;Signal;HPM_P1;HPM_P2
2021/05/25 00:01:53;;;;;;;2.53;1.00;;;;;;;-142.75;69.10;77239.63;5071407;28;20225;-84
2021/05/25 00:04:28;;;;;;;2.75;0.82;;;;;;;-142.75;68.89;77239.63;5059135;28;20072;-83
2021/05/25 00:06:53;;;;;;;3.03;0.90;;;;;;;-142.75;68.71;77237.66;5062846;28;20037;-84
2021/05/25 00:09:22;;;;;;;1.35;0.80;;;;;;;-142.75;68.63;77235.69;5062902;28;20509;-83
2021/05/25 00:11:51;;;;;;;2.47;0.73;;;;;;;-142.75;68.59;77237.66;5055839;28;20146;-84
2021/05/25 00:14:21;;;;;;;1.27;0.70;;;;;;;-142.75;67.59;77245.53;5067025;28;20025;-82
2021/05/25 00:16:50;;;;;;;3.00;0.90;;;;;;;-142.75;66.69;77235.69;5067505;28;20073;-81
2021/05/25 00:19:16;;;;;;;2.50;0.60;;;;;;;-142.75;66.95;77233.72;5062933;28;20032;-81
2021/05/25 00:21:42;;;;;;;7.00;0.90;;;;;;;-142.75;67.24;77239.63;5066543;28;20028;-83
2021/05/25 00:24:07;;;;;;;1.27;0.70;;;;;;;-142.75;67.38;77239.63;5055862;28;20025;-82
2021/05/25 00:26:33;;;;;;;2.72;0.70;;;;;;;-142.75;67.25;77247.50;5062587;28;20485;-81
2021/05/25 00:28:58;;;;;;;3.55;1.00;;;;;;;-142.75;67.59;77247.50;5060340;28;20025;-82
2021/05/25 00:31:23;;;;;;;2.23;1.20;;;;;;;-142.75;67.40;77247.50;5063212;28;20029;-82
2021/05/25 00:33:49;;;;;;;2.37;0.97;;;;;;;-142.75;67.85;77245.53;5066156;28;20305;-82
2021/05/25 00:36:14;;;;;;;2.93;1.43;;;;;;;-142.75;68.11;77249.47;5068091;28;20281;-81
2021/05/25 00:38:39;;;;;;;3.70;1.57;;;;;;;-142.75;68.27;77261.28;5061324;28;20324;-81
2021/05/25 00:41:05;;;;;;;4.13;1.35;;;;;;;-142.75;68.44;77267.19;5065353;28;20275;-80
2021/05/25 00:43:30;;;;;;;3.05;1.40;;;;;;;-142.75;68.61;77265.22;5064793;28;20025;-81
2021/05/25 00:45:55;;;;;;;5.28;1.80;;;;;;;-142.75;68.58;77271.13;5068993;28;20108;-83
2021/05/25 00:48:21;;;;;;;4.88;1.80;;;;;;;-142.75;68.81;77271.13;5067359;28;20090;-81
2021/05/25 00:50:47;;;;;;;4.82;1.70;;;;;;;-142.75;68.69;77273.09;5063998;28;20029;-81
2021/05/25 00:53:12;;;;;;;3.25;2.10;;;;;;;-142.75;68.84;77275.06;5063960;28;20051;-79
2021/05/25 00:55:39;;;;;;;6.35;2.45;;;;;;;-142.75;69.07;77275.06;5060792;28;20036;-82
2021/05/25 00:58:08;;;;;;;5.17;2.60;;;;;;;-142.75;68.93;77277.03;5060975;28;20147;-80
2021/05/25 01:00:39;;;;;;;8.90;2.67;;;;;;;-142.75;68.68;77280.97;5062420;28;20047;-82
2021/05/25 01:03:07;;;;;;;5.47;2.53;;;;;;;-142.75;68.95;77275.06;5065904;28;20025;-80
2021/05/25 01:05:33;;;;;;;7.53;2.70;;;;;;;-142.75;68.87;77286.88;5060092;28;20050;-79
2021/05/25 01:07:58;;;;;;;6.88;3.55;;;;;;;-142.75;69.10;77292.78;5066486;28;20092;-81
2021/05/25 01:10:39;;;;;;;5.28;3.20;;;;;;;-142.75;69.07;77300.66;5059987;28;20032;-81
2021/05/25 01:13:10;;;;;;;6.60;3.80;;;;;;;-142.75;69.29;77304.59;5062111;28;20070;-82
2021/05/25 01:15:36;;;;;;;8.73;4.43;;;;;;;-142.75;69.34;77308.53;5063696;28;20048;-80
2021/05/25 01:18:02;;;;;;;6.80;4.03;;;;;;;-142.75;69.56;77318.38;5069877;28;20047;-81
2021/05/25 01:20:33;;;;;;;9.32;3.35;;;;;;;-142.75;69.69;77314.44;5058541;28;20542;-82
2021/05/25 01:22:59;;;;;;;7.73;3.93;;;;;;;-142.75;69.57;77322.31;5059470;28;20047;-80
2021/05/25 01:25:26;;;;;;;8.20;3.70;;;;;;;-142.75;69.75;77332.16;5066936;28;20025;-81
2021/05/25 01:27:59;;;;;;;14.87;4.30;;;;;;;-142.75;69.68;77334.13;5063249;28;20494;-81
2021/05/25 01:30:27;;;;;;;8.40;4.07;;;;;;;-142.75;69.91;77338.06;5057140;28;20017;-81
2021/05/25 01:32:53;;;;;;;10.10;4.30;;;;;;;-142.75;69.88;77345.94;5067869;28;20035;-81
2021/05/25 01:35:19;;;;;;;10.30;4.67;;;;;;;-142.75;70.13;77349.88;5067867;28;20016;-81
2021/05/25 01:37:45;;;;;;;9.20;4.63;;;;;;;-142.75;70.12;77343.97;5065392;28;20390;-81
2021/05/25 01:40:11;;;;;;;9.48;4.72;;;;;;;-142.75;70.33;77351.84;5071367;28;20075;-83
2021/05/25 01:42:38;;;;;;;11.07;4.72;;;;;;;-142.75;70.33;77338.06;5056176;28;20024;-82
2021/05/25 01:45:10;;;;;;;12.50;4.73;;;;;;;-142.75;70.54;77334.13;5062880;28;20028;-82
2021/05/25 01:47:36;;;;;;;10.57;5.03;;;;;;;-142.75;70.56;77326.25;5060461;28;20083;-80
2021/05/25 01:50:12;;;;;;;12.50;5.33;;;;;;;-142.75;70.53;77334.13;5064730;28;20647;-81
2021/05/25 01:53:02;;;;;;;9.65;5.22;;;;;;;-142.75;70.37;77322.31;5058982;28;20628;-83
2021/05/25 01:55:36;;;;;;;10.57;5.00;;;;;;;-142.75;70.35;77318.38;5063551;28;20460;-81
2021/05/25 01:58:08;;;;;;;10.73;5.20;;;;;;;-142.75;70.09;77314.44;5060811;28;20093;-80
2021/05/25 02:00:34;;;;;;;11.97;5.67;;;;;;;-142.75;70.28;77314.44;5067787;28;20024;-82
2021/05/25 02:03:00;;;;;;;11.47;5.40;;;;;;;-142.75;70.22;77310.50;5061392;28;20060;-82
2021/05/25 02:05:25;;;;;;;11.82;5.82;;;;;;;-142.75;69.94;77302.63;5061894;28;20045;-80
2021/05/25 02:07:53;;;;;;;9.27;4.90;;;;;;;-142.75;69.87;77314.44;5067255;28;20024;-81
2021/05/25 02:10:30;;;;;;;17.23;5.60;;;;;;;-142.75;69.68;77322.31;5063388;28;20024;-80
2021/05/25 02:13:07;;;;;;;9.23;5.03;;;;;;;-142.75;69.69;77334.13;5068367;28;20029;-82
2021/05/25 02:15:33;;;;;;;10.30;5.10;;;;;;;-142.75;69.73;77334.13;5065813;28;20035;-81
2021/05/25 02:18:17;;;;;;;21.67;5.60;;;;;;;-142.75;69.82;77349.88;5064352;28;20470;-80
2021/05/25 02:20:44;;;;;;;10.73;5.13;;;;;;;-142.75;69.88;77349.88;5061396;28;20028;-81
2021/05/25 02:23:10;;;;;;;11.23;4.90;;;;;;;-142.75;70.12;77353.81;5064618;28;20378;-82
2021/05/25 02:25:36;;;;;;;9.02;4.90;;;;;;;-142.75;70.12;77357.75;5062361;28;20050;-82
2021/05/25 02:28:03;;;;;;;12.53;5.13;;;;;;;-142.75;69.97;77357.75;5058043;28;20021;-81
2021/05/25 02:30:29;;;;;;;10.37;4.90;;;;;;;-142.75;69.74;77361.69;5060290;28;20029;-80
2021/05/25 02:32:56;;;;;;;9.80;5.10;;;;;;;-142.75;69.84;77367.59;5060015;28;20474;-81
2021/05/25 02:35:22;;;;;;;8.87;5.23;;;;;;;-142.75;70.07;77369.56;5062022;28;20028;-80
2021/05/25 02:37:47;;;;;;;10.18;4.88;;;;;;;-142.75;70.25;77369.56;5065013;28;20031;-81
2021/05/25 02:40:13;;;;;;;11.00;5.13;;;;;;;-142.75;70.21;77365.63;5060129;28;20028;-81
2021/05/25 02:42:39;;;;;;;12.30;5.60;;;;;;;-142.75;70.22;77377.44;5051112;28;20036;-80
2021/05/25 02:45:06;;;;;;;12.05;4.95;;;;;;;-142.75;70.29;77377.44;5062270;28;20393;-81
2021/05/25 02:47:31;;;;;;;14.70;5.60;;;;;;;-142.75;70.51;77377.44;5063599;28;20021;-83
2021/05/25 02:50:06;;;;;;;12.75;5.53;;;;;;;-142.75;70.79;77365.63;5063070;28;20538;-83
2021/05/25 02:52:32;;;;;;;12.37;5.37;;;;;;;-142.75;70.59;77367.59;5053807;28;20024;-81
2021/05/25 02:54:57;;;;;;;11.15;5.60;;;;;;;-142.75;70.70;77365.63;5058802;28;20043;-80
2021/05/25 02:57:22;;;;;;;9.88;4.82;;;;;;;-142.75;70.86;77365.63;5061402;28;20490;-81
2021/05/25 02:59:47;;;;;;;10.63;5.77;;;;;;;-142.75;70.83;77371.53;5063263;28;20024;-81
2021/05/25 03:02:13;;;;;;;13.40;5.97;;;;;;;-142.75;71.04;77361.69;5068783;28;20778;-82
2021/05/25 03:04:39;;;;;;;14.70;6.60;;;;;;;-142.75;70.83;77343.97;5060936;28;20275;-83
2021/05/25 03:07:04;;;;;;;14.73;6.28;;;;;;;-142.75;70.53;77345.94;5055774;28;20016;-81
2021/05/25 03:09:29;;;;;;;14.75;6.57;;;;;;;-142.75;70.49;77349.88;5061014;28;20032;-81
2021/05/25 03:11:55;;;;;;;11.32;6.07;;;;;;;-142.75;70.47;77349.88;5060723;28;20047;-81
2021/05/25 03:14:20;;;;;;;11.20;6.57;;;;;;;-142.75;70.33;77357.75;5065118;28;20021;-81
2021/05/25 03:16:45;;;;;;;13.70;6.80;;;;;;;-142.75;70.12;77365.63;5060710;28;20024;-82
2021/05/25 03:19:11;;;;;;;13.52;7.43;;;;;;;-142.75;70.00;77367.59;5058284;28;20170;-82
2021/05/25 03:21:36;;;;;;;13.68;7.28;;;;;;;-142.75;70.12;77379.41;5059312;28;20021;-81
2021/05/25 03:24:02;;;;;;;12.83;6.73;;;;;;;-142.75;70.03;77389.25;5062249;28;20024;-80
2021/05/25 03:26:27;;;;;;;9.27;6.90;;;;;;;-142.75;70.33;77393.19;5067457;28;20275;-83
2021/05/25 03:28:55;;;;;;;10.03;6.90;;;;;;;-142.75;70.44;77403.03;5066059;28;20111;-80
2021/05/25 03:31:20;;;;;;;10.77;7.10;;;;;;;-142.75;70.42;77412.88;5072725;28;20029;-81
2021/05/25 03:33:46;;;;;;;11.15;7.13;;;;;;;-142.75;70.59;77416.81;5061638;28;20115;-82
2021/05/25 03:36:14;;;;;;;10.75;6.85;;;;;;;-142.75;70.83;77414.84;5060841;28;20029;-82
2021/05/25 03:38:42;;;;;;;10.17;6.77;;;;;;;-142.75;70.82;77414.84;5070239;28;20021;-80
2021/05/25 03:41:08;;;;;;;13.87;8.37;;;;;;;-142.75;70.73;77420.75;5062980;28;20155;-79
2021/05/25 03:43:33;;;;;;;11.85;7.60;;;;;;;-142.75;71.01;77432.56;5066536;28;20067;-82
2021/05/25 03:45:58;;;;;;;13.98;6.70;;;;;;;-142.75;71.03;77424.69;5070940;28;20092;-82
2021/05/25 03:48:24;;;;;;;10.93;8.13;;;;;;;-142.75;71.01;77432.56;5067982;28;20112;-81
2021/05/25 03:50:50;;;;;;;11.77;7.47;;;;;;;-142.75;71.04;77426.66;5071604;28;20032;-81
2021/05/25 03:53:15;;;;;;;12.70;7.65;;;;;;;-142.75;71.34;77428.63;5073525;28;20498;-81
2021/05/25 03:55:55;;;;;;;15.75;7.32;;;;;;;-142.75;71.20;77432.56;5077308;28;20036;-82
2021/05/25 04:01:05;;;;;;;12.93;6.97;;;;;;;-142.75;71.22;77442.41;5074329;28;20052;-82
2021/05/25 04:03:33;;;;;;;12.02;7.60;;;;;;;-142.75;71.21;77438.47;5072945;28;20025;-81
2021/05/25 04:05:59;;;;;;;12.10;7.37;;;;;;;-142.75;71.22;77434.53;5075386;28;21445;-82
2021/05/25 04:08:25;;;;;;;9.48;6.68;;;;;;;-142.75;71.09;77434.53;5080455;28;20088;-82
2021/05/25 04:10:50;;;;;;;10.17;6.97;;;;;;;-142.75;71.01;77418.78;5076606;28;20059;-82
2021/05/25 04:13:17;;;;;;;12.82;6.22;;;;;;;-142.75;70.94;77428.63;5071914;28;20025;-82
2021/05/25 04:15:53;;;;;;;12.00;7.17;;;;;;;-142.75;70.94;77422.72;5072024;28;20037;-82
2021/05/25 04:18:18;;;;;;;12.27;7.10;;;;;;;-142.75;70.97;77422.72;5069481;28;20023;-79
2021/05/25 04:20:44;;;;;;;8.75;6.28;;;;;;;-142.75;70.92;77424.69;5074292;28;20020;-84
2021/05/25 04:23:12;;;;;;;11.23;7.22;;;;;;;-142.75;70.87;77428.63;5067483;28;20036;-82
2021/05/25 04:25:37;;;;;;;11.43;6.33;;;;;;;-142.75;70.75;77424.69;5081692;28;20020;-82
2021/05/25 04:28:08;;;;;;;12.35;6.82;;;;;;;-142.75;70.66;77416.81;5081291;28;20083;-83
2021/05/25 04:30:37;;;;;;;12.57;6.40;;;;;;;-142.75;70.72;77420.75;5064199;28;20443;-82
2021/05/25 04:33:03;;;;;;;11.90;6.30;;;;;;;-142.75;70.50;77410.91;5068326;28;20028;-82
2021/05/25 04:35:40;;;;;;;9.43;6.22;;;;;;;-142.75;70.76;77416.81;5076961;28;20020;-81
2021/05/25 04:38:08;;;;;;;;;;;;;;;-142.75;70.68;77403.03;5073664;28;20044;-84
2021/05/25 04:40:35;;;;;;;7.70;6.07;;;;;;;-142.75;70.80;77401.06;5065400;28;19912;-81
2021/05/25 04:43:06;;;;;;;12.97;6.43;;;;;;;-142.75;70.69;77387.28;5074022;28;20041;-82
2021/05/25 04:45:36;;;;;;;9.60;5.90;;;;;;;-142.75;70.58;77365.63;5073792;28;20268;-84
2021/05/25 04:48:25;;;;;;;11.87;6.47;;;;;;;-142.75;70.34;77334.13;5069501;28;20509;-82
2021/05/25 04:50:50;;;;;;;8.87;5.70;;;;;;;-142.75;69.77;77314.44;5068463;28;20024;-82
2021/05/25 04:53:23;;;;;;;11.52;5.53;;;;;;;-142.75;69.47;77302.63;5076317;28;20133;-82
2021/05/25 04:55:48;;;;;;;9.33;5.43;;;;;;;-142.75;68.67;77296.72;5070392;28;20033;-83
2021/05/25 04:58:14;;;;;;;8.48;5.43;;;;;;;-142.75;68.52;77290.81;5074418;28;20372;-82
2021/05/25 05:00:42;;;;;;;9.15;5.13;;;;;;;-142.75;68.25;77282.94;5074033;28;20104;-82
2021/05/25 05:03:07;;;;;;;6.30;4.63;;;;;;;-142.75;68.24;77286.88;5068957;28;20131;-81
2021/05/25 05:05:36;;;;;;;8.98;5.13;;;;;;;-142.75;68.15;77286.88;5075651;28;20047;-82
2021/05/25 05:08:02;;;;;;;8.70;4.70;;;;;;;-142.75;68.45;77284.91;5072319;28;20030;-83
2021/05/25 05:10:30;;;;;;;7.03;4.55;;;;;;;-142.75;68.30;77286.88;5070681;28;20115;-82
2021/05/25 05:13:08;;;;;;;6.90;4.83;;;;;;;-142.75;67.97;77267.19;5069578;28;20378;-82
2021/05/25 05:15:43;;;;;;;7.17;4.50;;;;;;;-142.75;68.27;77271.13;5066342;28;20105;-81
2021/05/25 05:18:08;;;;;;;6.93;4.53;;;;;;;-142.75;67.66;77261.28;5076580;28;20024;-81
2021/05/25 05:20:33;;;;;;;9.05;5.00;;;;;;;-142.75;67.81;77267.19;5076771;28;20021;-81
2021/05/25 05:22:59;;;;;;;7.77;4.53;;;;;;;-142.75;67.73;77269.16;5070296;28;20100;-82
2021/05/25 05:25:24;;;;;;;8.27;4.00;;;;;;;-142.75;67.93;77241.59;5065895;28;20610;-82
2021/05/25 05:27:49;;;;;;;7.07;4.15;;;;;;;-142.75;67.53;77208.13;5071288;28;20272;-80
2021/05/25 05:30:18;;;;;;;6.20;3.83;;;;;;;-142.75;66.49;77172.69;5068212;28;20054;-80
2021/05/25 05:32:43;;;;;;;7.30;3.30;;;;;;;-142.75;65.51;77135.28;5062590;28;20024;-83
2021/05/25 05:35:09;;;;;;;4.60;3.28;;;;;;;-142.75;65.21;77101.81;5067855;28;20028;-81
2021/05/25 05:37:37;;;;;;;6.18;3.15;;;;;;;-142.75;64.67;77066.38;5062756;28;20029;-81
2021/05/25 05:40:09;;;;;;;6.13;2.85;;;;;;;-142.75;63.97;77027.00;5070935;28;20092;-82
2021/05/25 05:42:39;;;;;;;5.53;2.90;;;;;;;-142.75;63.07;76962.03;5067729;28;20081;-83
2021/05/25 05:45:08;;;;;;;5.43;2.30;;;;;;;-142.75;61.53;76920.69;5061887;28;20041;-82
2021/05/25 05:47:33;;;;;;;6.57;2.75;;;;;;;-142.75;60.80;76932.50;5062276;28;20016;-82
2021/05/25 05:49:58;;;;;;;5.53;2.60;;;;;;;-142.75;61.42;76885.25;5071163;28;20020;-82
2021/05/25 05:52:30;;;;;;;6.75;2.25;;;;;;;-142.75;61.12;76885.25;5073315;28;20077;-80
2021/05/25 05:54:55;;;;;;;6.97;2.30;;;;;;;-142.75;61.65;76904.94;5066921;28;20102;-84
2021/05/25 05:57:21;;;;;;;3.78;2.00;;;;;;;-142.75;61.87;76952.19;5059001;28;20025;-82
2021/05/25 05:59:46;;;;;;;3.63;2.00;;;;;;;-142.75;63.09;76997.47;5060517;28;20020;-84
2021/05/25 06:02:18;;;;;;;6.88;2.67;;;;;;;-142.75;63.26;77021.09;5065550;28;20036;-85
2021/05/25 06:04:43;;;;;;;3.65;2.00;;;;;;;-142.75;63.51;77034.88;5069550;28;20497;-84
2021/05/25 06:07:08;;;;;;;5.28;2.33;;;;;;;-142.75;64.31;77044.72;5064111;28;20016;-82
2021/05/25 06:09:37;;;;;;;6.68;2.30;;;;;;;-142.75;64.91;77052.59;5064734;28;20021;-83
2021/05/25 06:12:02;;;;;;;5.97;2.88;;;;;;;-142.75;64.70;77054.56;5069283;28;20021;-82
2021/05/25 06:14:36;;;;;;;6.93;2.25;;;;;;;-142.75;65.64;77068.34;5069393;28;20371;-84
2021/05/25 06:17:06;;;;;;;5.40;2.17;;;;;;;-142.75;65.58;77070.31;5065616;28;20032;-83
2021/05/25 06:19:32;;;;;;;4.80;2.30;;;;;;;-142.75;65.88;77072.28;5061468;28;20032;-83
2021/05/25 06:22:07;;;;;;;8.48;3.05;;;;;;;-142.75;65.53;77068.34;5062512;28;20024;-82
2021/05/25 06:24:32;;;;;;;7.53;2.97;;;;;;;-142.75;65.72;77074.25;5064403;28;20083;-81
2021/05/25 06:27:00;;;;;;;7.45;3.17;;;;;;;-142.75;65.15;77076.22;5060873;28;20478;-81
2021/05/25 06:29:26;;;;;;;6.40;3.20;;;;;;;-142.75;65.25;77052.59;5065041;28;20533;-82
2021/05/25 06:31:58;;;;;;;10.38;3.53;;;;;;;-142.75;65.20;77019.13;5065224;28;20055;-83
2021/05/25 06:34:32;;;;;;;12.85;4.95;;;;;;;-142.75;64.67;76983.69;5061682;28;20450;-83
2021/05/25 06:37:03;;;;;;;6.45;3.15;;;;;;;-142.75;64.41;76924.63;5061470;28;20026;-82
2021/05/25 06:39:29;;;;;;;9.52;2.97;;;;;;;-142.75;63.02;76865.56;5063177;28;20025;-81
2021/05/25 06:42:01;;;;;;;5.38;2.90;;;;;;;-142.75;62.17;76767.16;5062358;28;20043;-82
2021/05/25 06:44:45;;;;;;;5.10;2.50;;;;;;;-142.75;59.75;76700.22;5062492;28;20032;-82
2021/05/25 06:47:21;;;;;;;10.20;2.35;;;;;;;-142.75;57.26;76712.03;5061905;28;20020;-81
2021/05/25 06:49:57;;;;;;;5.45;1.98;;;;;;;-142.75;58.29;76743.53;5060993;28;20124;-79
2021/05/25 06:52:24;;;;;;;7.93;2.53;;;;;;;-142.75;58.83;76782.91;5061764;28;20541;-82
2021/05/25 06:54:50;;;;;;;10.13;2.20;;;;;;;-142.75;59.65;76839.97;5058813;28;20031;-81
2021/05/25 06:57:15;;;;;;;5.85;2.25;;;;;;;-142.75;60.05;76875.41;5062286;28;20032;-81
2021/05/25 06:59:41;;;;;;;8.77;2.53;;;;;;;-142.75;61.84;76910.84;5064637;28;20088;-80
2021/05/25 07:02:06;;;;;;;8.70;2.50;;;;;;;-142.75;62.03;76928.56;5057077;28;20040;-81
2021/05/25 07:04:32;;;;;;;9.45;2.58;;;;;;;-142.75;61.54;76934.47;5063891;28;20028;-80
2021/05/25 07:06:58;;;;;;;9.27;2.40;;;;;;;-142.75;61.74;76960.06;5062434;28;20024;-80
2021/05/25 07:09:23;;;;;;;9.35;2.55;;;;;;;-142.75;62.60;76979.75;5065812;28;20038;-82
2021/05/25 07:11:49;;;;;;;10.80;2.55;;;;;;;-142.75;62.64;77013.22;5061706;28;20079;-80
2021/05/25 07:14:15;;;;;;;12.40;2.80;;;;;;;-142.75;63.10;77019.13;5059434;28;20079;-81
2021/05/25 07:16:40;;;;;;;9.43;2.38;;;;;;;-142.75;63.56;77030.94;5064468;28;20510;-80
2021/05/25 07:19:08;;;;;;;13.77;2.80;;;;;;;-142.75;63.75;77036.84;5062676;28;20035;-81
2021/05/25 07:21:33;;;;;;;12.00;2.60;;;;;;;-142.75;64.19;77056.53;5061085;28;20031;-79
2021/05/25 07:24:02;;;;;;;12.20;2.50;;;;;;;-142.75;64.08;77072.28;5060119;28;20624;-79
2021/05/25 07:26:28;;;;;;;9.35;2.90;;;;;;;-142.75;64.17;77088.03;5062050;28;20025;-82
2021/05/25 07:28:53;;;;;;;10.38;3.05;;;;;;;-142.75;63.92;77099.84;5062614;28;20505;-80
2021/05/25 07:31:19;;;;;;;15.48;2.50;;;;;;;-142.75;63.94;77074.25;5063852;28;20489;-84
2021/05/25 07:33:48;;;;;;;10.05;2.28;;;;;;;-142.75;63.77;77072.28;5061101;28;20107;-80
2021/05/25 07:36:13;;;;;;;11.10;2.60;;;;;;;-142.75;63.43;77062.44;5059619;28;20406;-81
2021/05/25 07:38:39;;;;;;;6.28;2.30;;;;;;;-142.75;62.76;77082.13;5061457;28;20033;-80
2021/05/25 07:41:07;;;;;;;5.93;2.20;;;;;;;-142.75;63.11;77101.81;5060855;28;20029;-80
2021/05/25 07:43:32;;;;;;;8.25;2.92;;;;;;;-142.75;62.40;77105.75;5061484;28;20141;-81
2021/05/25 07:47:12;;;;;;;8.18;2.50;;;;;;;-142.75;62.46;77082.13;5060312;28;20478;-82
2021/05/25 07:49:13;;;;;;;8.48;2.50;;;;;;;-142.75;62.52;77090.00;5051744;28;20430;-82
2021/05/25 07:51:38;;;;;;;10.23;3.60;;;;;;;-142.75;62.82;77088.03;5063883;28;20024;-78
2021/05/25 07:54:04;;;;;;;8.68;2.78;;;;;;;-142.75;61.96;77084.09;5061444;28;20039;-81
2021/05/25 07:56:29;;;;;;;12.20;3.25;;;;;;;-142.75;61.93;77097.88;5062095;28;20397;-82
2021/05/25 07:58:54;;;;;;;10.85;2.97;;;;;;;-142.75;62.43;77054.56;5061780;28;20043;-81
2021/05/25 08:01:21;;;;;;;9.20;3.20;;;;;;;-142.75;61.32;76991.56;5059953;28;20025;-80
2021/05/25 08:03:46;;;;;;;11.23;3.22;;;;;;;-142.75;58.26;76887.22;5061884;28;20651;-81
2021/05/25 08:06:12;;;;;;;9.80;2.67;;;;;;;-142.75;58.16;76849.81;5060352;28;20056;-84
2021/05/25 08:08:38;;;;;;;8.63;2.53;;;;;;;-142.75;58.20;76841.94;5062605;28;20013;-78
2021/05/25 08:11:04;;;;;;;8.77;2.88;;;;;;;-142.75;58.08;76881.31;5059824;28;20059;-80
2021/05/25 08:13:29;;;;;;;15.07;3.38;;;;;;;-142.75;58.64;76893.13;5061163;28;20077;-82
2021/05/25 08:15:55;;;;;;;10.43;3.30;;;;;;;-142.75;58.04;76912.81;5060618;28;20127;-80
2021/05/25 08:18:50;;;;;;;8.27;2.65;;;;;;;-142.75;57.04;76930.53;5059329;28;20028;-82
2021/05/25 08:21:07;;;;;;;12.20;3.45;;;;;;;-142.75;57.16;76940.38;5061512;28;20036;-78
2021/05/25 08:23:32;;;;;;;12.50;3.00;;;;;;;-142.75;58.33;76977.78;5062536;28;20040;-80
2021/05/25 08:25:58;;;;;;;8.40;3.00;;;;;;;-142.75;58.66;76997.47;5063345;28;20021;-81
2021/05/25 08:28:24;;;;;;;11.10;3.75;;;;;;;-142.75;57.93;77005.34;5063563;28;20023;-80
2021/05/25 08:30:50;;;;;;;7.40;3.20;;;;;;;-142.75;56.98;76920.69;5065670;28;20052;-81
2021/05/25 08:33:16;;;;;;;10.20;3.40;;;;;;;-142.75;56.96;76922.66;5064675;28;20029;-81
2021/05/25 08:35:42;;;;;;;9.43;3.15;;;;;;;-142.75;57.19;76946.28;5066945;28;20032;-80
2021/05/25 08:38:13;;;;;;;9.27;3.08;;;;;;;-142.75;57.29;76952.19;5065945;28;20028;-78
2021/05/25 08:40:39;;;;;;;11.25;3.05;;;;;;;-142.75;57.45;76936.44;5064600;28;20434;-84
2021/05/25 08:43:06;;;;;;;11.05;4.25;;;;;;;-142.75;58.13;76946.28;5064284;28;20032;-80
2021/05/25 08:45:32;;;;;;;12.98;3.22;;;;;;;-142.75;57.16;76897.06;5065980;28;20128;-82
2021/05/25 08:47:58;;;;;;;12.88;4.05;;;;;;;-142.75;56.65;76851.78;5066300;28;20052;-80
2021/05/25 08:50:26;;;;;;;;;;;;;;;-142.75;55.79;76887.22;5065705;28;20091;-81
2021/05/25 08:52:52;;;;;;;8.18;3.55;;;;;;;-142.75;56.15;76867.53;5065451;28;19921;-82
2021/05/25 08:55:20;;;;;;;16.25;3.58;;;;;;;-142.75;54.63;76814.38;5063457;28;20021;-84
2021/05/25 08:57:46;;;;;;;10.50;3.50;;;;;;;-142.75;54.58;76778.97;5065860;28;20032;-80
2021/05/25 09:00:11;;;;;;;11.50;3.30;;;;;;;-142.75;52.79;76684.47;5066088;28;20029;-82
2021/05/25 09:02:37;;;;;;;;;;;;;;;-142.75;51.48;76601.78;5064124;28;20063;-80
2021/05/25 09:05:15;;;;;;;11.90;2.70;;;;;;;-142.75;51.78;76519.13;5064409;28;19917;-81
2021/05/25 09:07:49;;;;;;;10.90;2.92;;;;;;;-142.75;50.38;76601.78;5065614;28;20056;-80
2021/05/25 09:10:34;;;;;;;8.38;2.42;;;;;;;-142.75;50.58;76625.41;5065175;28;20032;-81
2021/05/25 09:13:10;;;;;;;7.90;2.25;;;;;;;-142.75;49.99;76686.44;5059836;28;20132;-81
2021/05/25 09:15:42;;;;;;;11.52;2.40;;;;;;;-142.75;49.81;76731.72;5064827;28;20485;-85
2021/05/25 09:18:29;;;;;;;10.00;1.90;;;;;;;-142.75;51.74;76717.94;5064595;28;20556;-82
2021/05/25 09:21:02;;;;;;;9.90;1.98;;;;;;;-142.75;51.35;76735.66;5062099;28;20424;-83
2021/05/25 09:23:38;;;;;;;11.45;2.35;;;;;;;-142.75;49.85;76692.34;5064991;28;20078;-81
2021/05/25 09:26:25;;;;;;;6.82;1.85;;;;;;;-142.75;49.49;76651.00;5063008;28;20029;-79
2021/05/25 09:29:06;;;;;;;8.05;1.63;;;;;;;-142.75;48.78;76664.78;5063141;28;20017;-82
2021/05/25 09:31:51;;;;;;;6.43;1.33;;;;;;;-142.75;49.65;76686.44;5062170;28;20021;-80
2021/05/25 09:34:22;;;;;;;5.75;1.50;;;;;;;-142.75;49.00;76647.06;5063152;28;20051;-82
2021/05/25 09:36:59;;;;;;;5.10;1.50;;;;;;;-142.75;49.24;76574.22;5063184;28;20082;-82
2021/05/25 09:39:26;;;;;;;7.53;1.90;;;;;;;-142.75;47.95;76546.66;5063054;28;20048;-81
2021/05/25 09:42:00;;;;;;;3.08;1.00;;;;;;;-142.75;47.22;76664.78;5065292;28;20444;-84
2021/05/25 09:44:26;;;;;;;7.95;1.95;;;;;;;-142.75;48.38;76731.72;5059064;28;20548;-83
2021/05/25 09:46:53;;;;;;;4.13;1.20;;;;;;;-142.75;49.38;76808.50;5063851;28;20031;-82
2021/05/25 09:49:20;;;;;;;8.00;1.67;;;;;;;-142.75;49.76;76877.38;5062537;28;20437;-80
2021/05/25 09:51:46;;;;;;;6.65;1.52;;;;;;;-142.75;50.17;76897.06;5061837;28;20032;-82
2021/05/25 09:54:24;;;;;;;10.48;1.98;;;;;;;-142.75;50.80;76901.00;5058720;28;20029;-83
2021/05/25 09:57:02;;;;;;;7.22;1.65;;;;;;;-142.75;51.08;76891.16;5062176;28;20032;-83
2021/05/25 09:59:38;;;;;;;5.28;1.20;;;;;;;-142.75;51.21;76790.78;5063121;28;20024;-82
2021/05/25 10:02:19;;;;;;;7.65;1.88;;;;;;;-142.75;47.46;76558.47;5057183;28;20044;-82
2021/05/25 10:05:17;;;;;;;7.00;1.90;;;;;;;-142.75;45.53;76418.72;5063546;28;20032;-80
2021/05/25 10:07:42;;;;;;;11.30;1.80;;;;;;;-142.75;44.28;76424.63;5034715;28;20414;-79
2021/05/25 10:10:08;;;;;;;7.50;1.60;;;;;;;-142.75;46.77;76456.13;5062095;28;20029;-79
2021/05/25 10:12:36;;;;;;;;;;;;;;;-142.75;45.20;76477.78;5062480;28;20035;-79
2021/05/25 10:15:01;;;;;;;10.57;1.50;;;;;;;-142.75;45.05;76460.06;5059328;28;19913;-80
2021/05/25 10:17:44;;;;;;;6.18;1.17;;;;;;;-142.75;45.42;76452.19;5060221;28;20025;-80
2021/05/25 10:20:11;;;;;;;7.28;1.20;;;;;;;-142.75;44.79;76505.34;5066878;28;20025;-80
2021/05/25 10:22:38;;;;;;;5.47;0.98;;;;;;;-142.75;46.51;76613.59;5059701;28;20021;-78
2021/05/25 10:25:10;;;;;;;5.85;1.27;;;;;;;-142.75;47.08;76639.19;5064456;28;20047;-79
2021/05/25 10:27:36;;;;;;;8.77;1.30;;;;;;;-142.75;46.89;76649.03;5059856;28;20017;-78
2021/05/25 10:30:01;;;;;;;4.20;1.08;;;;;;;-142.75;48.79;76534.84;5066174;28;20027;-79
2021/05/25 10:32:29;;;;;;;;;;;;;;;-142.75;45.15;76397.06;5062109;28;20485;-79
2021/05/25 10:34:55;;;;;;;7.90;1.17;;;;;;;-142.75;43.34;76501.41;5061740;28;19912;-79
2021/05/25 10:37:21;;;;;;;8.48;0.75;;;;;;;-142.75;44.78;76617.53;5064017;28;20013;-80
2021/05/25 10:39:53;;;;;;;3.70;1.10;;;;;;;-142.75;46.06;76672.66;5065282;28;20067;-81
2021/05/25 10:42:21;;;;;;;5.63;1.13;;;;;;;-142.75;45.53;76670.69;5064175;28;20046;-80
2021/05/25 10:44:57;;;;;;;5.95;0.88;;;;;;;-142.75;46.07;76696.28;5065962;28;20047;-80
2021/05/25 10:47:24;;;;;;;7.28;1.00;;;;;;;-142.75;46.97;76678.56;5066892;28;20490;-80
2021/05/25 10:52:57;;;;;;;4.75;1.13;;;;;;;-142.75;46.97;76676.59;5029852;28;20048;-82
2021/05/25 10:55:25;;;;;;;4.45;0.85;;;;;;;-142.75;46.98;76723.84;5064922;28;20033;-78
2021/05/25 10:57:51;;;;;;;4.20;0.70;;;;;;;-142.75;46.48;76767.16;5064863;28;20530;-82
2021/05/25 11:00:25;;;;;;;4.25;0.90;;;;;;;-142.75;46.75;76743.53;5070680;28;20028;-80
2021/05/25 11:02:55;;;;;;;5.85;0.90;;;;;;;-142.75;47.98;76694.31;5066098;28;20024;-81
2021/05/25 11:05:34;;;;;;;3.65;0.50;;;;;;;-142.75;45.76;76664.78;5066738;28;20028;-82
2021/05/25 11:08:21;;;;;;;3.38;0.60;;;;;;;-142.75;44.05;76717.94;5062361;28;20051;-83
2021/05/25 11:10:52;;;;;;;5.00;0.75;;;;;;;-142.75;46.87;76767.16;5064681;28;20025;-79
2021/05/25 11:13:22;;;;;;;3.55;0.70;;;;;;;-142.75;45.81;76838.00;5067295;28;20106;-82
2021/05/25 11:16:12;;;;;;;6.35;0.55;;;;;;;-142.75;46.64;76930.53;5061816;28;20423;-81
2021/05/25 11:24:35;;;;;;;5.65;0.70;;;;;;;-142.75;48.43;76940.38;5066618;28;20126;-82
2021/05/25 11:27:07;;;;;;;4.70;0.70;;;;;;;-142.75;49.21;76904.94;5062437;28;20509;-83
2021/05/25 11:29:34;;;;;;;4.20;0.55;;;;;;;-142.75;48.66;76830.13;5064416;28;20044;-82
2021/05/25 11:32:12;;;;;;;5.07;0.95;;;;;;;-142.75;48.38;76759.28;5069839;28;20067;-83
2021/05/25 11:34:38;;;;;;;2.67;0.40;;;;;;;-142.75;47.01;76826.19;5061083;28;20024;-82